Anglesea, New Jersey
Current Conditions -  °F | °C
As of 12:35 PM on Friday 24 Oct 2014 (Local Time) from KWWD Reporting Station
Overcast Overcast  
Wind Chill: 63°   Ceiling: 4100
Heat Index: 63°   Visibility: 10mi
Dew Point: 46°   Wind: 12mph
Humidity: 55%   Direction: 290°WNW
Pressure: 29.87"   Gusts: 18mph
Location:  38.9808°N, 74.8281°W
Report Text: KWWD 241635Z AUTO 29010G16KT 270V330 10SM OVC041 17/08 A2987 RMK AO1
Loading
Personal Weather Stations






























Interactive Weather Map
Tropical Storm Tracking
New forecast layout! Learn more

10-Day Weather Forecast

Advertisements
Track Severe Weather on mobile